Black Mountain, North Carolina
Current Conditions -  °F | °C
As of 11:54 PM on Saturday 20 Dec 2014 (Local Time) from KAVL Reporting Station
Haze Haze  
Wind Chill: 36°   Ceiling: 300
Heat Index: 39°   Visibility: 3mi
Dew Point: 37°   Wind: 5mph
Humidity: 93%   Direction: 170°S
Pressure: 30.2"   Gusts: NA
Location:  35.62°N, 82.32°W
Report Text: KAVL 210454Z AUTO 17004KT 3SM BR OVC003 04/03 A3020 RMK AO2 SLP232 T00390028 400670033
Loading
Personal Weather Stations






























Interactive Weather Map New forecast layout! Learn more

10-Day Weather Forecast

Advertisements
Track Severe Weather on mobile